Flight Track Log - Related Links

Times and Time Zones

All times are in EDT time to prevent confusion due to time zone crossing. See the N588AC flight status page for this flight to view local times or setup timezone preferences in your user account.

Time Position Orientation Groundspeed Altitude Reporting Facility
EDT Latitude Longitude Course Direction KTS MPH feet Rate Location/Type
Wed 07:17:59 PM 37.1353 -76.4803 50° Northeast 144 166 1,400  Level Washington Center
Wed 07:18:23 PM 37.1458 -76.4647 50° Northeast 141 162 2,100 1,630 Climbing Washington Center
Wed 07:19:20 PM 37.1917 -76.4836 342° North 282 325 3,600 2,516 Climbing Washington Center
Wed 07:20:27 PM 37.1681 -76.5744 252° West 253 291 7,300 3,033 Climbing Washington Center
Wed 07:20:51 PM 37.1594 -76.6003 247° West 247 284 8,200 2,500 Climbing Washington Center
Wed 07:21:51 PM 37.1442 -76.6808 257° West 258 297 10,800 2,529 Climbing Washington Center
Wed 07:22:52 PM 37.1225 -76.7614 251° West 263 303 13,300 2,182 Climbing Washington Center
Wed 07:23:52 PM 37.1028 -76.8522 255° West 263 303 15,200 1,424 Climbing Washington Center
Wed 07:24:50 PM 37.0767 -76.9481 251° West 271 312 16,100 454 Climbing Washington Center
Wed 07:25:51 PM 37.0503 -77.0622 254° West 312 359 16,100 -49 Level Washington Center
Wed 07:26:52 PM 37.0467 -77.1844 268° West 334 384 16,000 -50 Descending Washington Center
Wed 07:27:50 PM 37.0514 -77.3094 273° West 350 403 16,000 50 Level Washington Center
Wed 07:28:51 PM 37.0536 -77.4292 271° West 356 410 16,100 50 Climbing Washington Center
Wed 07:29:51 PM 37.0539 -77.5489 270° West 356 410 16,100 -49 Level Washington Center
Wed 07:30:53 PM 37.0539 -77.6686 270° West 356 410 16,000 -50 Descending Washington Center
Wed 07:31:50 PM 37.0561 -77.7911 271° West 356 410 16,000  Level Washington Center
Wed 07:32:51 PM 37.0556 -77.9158 270° West 356 410 16,000  Level Washington Center
Wed 07:33:52 PM 37.0575 -78.0358 271° West 350 403 16,000  Level Washington Center
Wed 07:34:50 PM 37.0569 -78.1553 270° West 345 397 16,000  Level Washington Center
Wed 07:35:51 PM 37.0606 -78.2778 272° West 345 397 16,000  Level Washington Center
Wed 07:36:52 PM 37.0600 -78.3975 270° West 345 397 16,000  Level Washington Center
Wed 07:37:52 PM 37.0592 -78.5172 270° West 345 397 16,000  Level Washington Center
Wed 07:38:50 PM 37.0581 -78.6500 269° West 345 397 16,000  Level Washington Center
Wed 07:39:51 PM 37.0589 -78.7722 271° West 345 397 16,000  Level Washington Center
Wed 07:40:52 PM 37.0578 -78.8919 269° West 350 403 16,000  Level Washington Center
Wed 07:41:51 PM 37.0586 -79.0092 271° West 345 397 16,000  Level Washington Center
Wed 07:42:52 PM 37.0556 -79.1158 268° West 345 397 16,000 -50 Level Washington Center
Wed 07:43:50 PM 37.0561 -79.2356 270° West 345 397 15,900 -403 Descending Washington Center
Wed 07:44:51 PM 37.0547 -79.3472 269° West 345 397 15,200 -1,033 Descending Washington Center
Wed 07:45:52 PM 37.0536 -79.4539 269° West 327 376 13,800 -1,664 Descending Washington Center
Wed 07:46:50 PM 37.0519 -79.5658 269° West 327 376 11,900 -2,085 Descending Washington Center
Wed 07:47:50 PM 37.0519 -79.6881 270° West 327 376 9,700 -1,800 Descending Washington Center
Wed 07:48:50 PM 37.0503 -79.7947 269° West 327 376 8,300 -843 Descending Washington Center
Wed 07:49:51 PM 37.0489 -79.8989 269° West 314 361 8,000 -689 Descending Washington Center
Wed 07:50:52 PM 37.0494 -79.9978 270° West 301 346 6,900 -1,131 Descending Washington Center
Wed 07:51:53 PM 37.0625 -80.0922 280° West 291 335 5,700 -864 Descending Washington Center
Wed 07:52:50 PM 37.0994 -80.1647 303° West 267 307 5,200 -254 Descending Washington Center
Wed 07:53:51 PM 37.1339 -80.2450 298° West 267 307 5,200  Level Washington Center

Login

Don't have an account? Register now (free) for customized features, flight alerts, and more!